Time;durP1;ratioP1;P1;durP2;ratioP2;P2;SDS_P1;SDS_P2;PMS_P1;PMS_P2;Temp;Humidity;BMP_temperature;BMP_pressure;BME280_temperature;BME280_humidity;BME280_pressure;Samples;Min_cycle;Max_cycle;Signal;HPM_P1;HPM_P2
2022/09/21 00:00:52;;;;;;;4.53;0.70;;;12.30;87.80;;;;;;5036573;28;20029;-82
2022/09/21 00:03:18;;;;;;;7.13;0.82;;;12.20;87.80;;;;;;5053195;28;20037;-82
2022/09/21 00:05:44;;;;;;;2.47;0.50;;;12.20;87.90;;;;;;5053370;28;20048;-81
2022/09/21 00:08:12;;;;;;;3.53;0.60;;;12.20;88.10;;;;;;5052777;28;20496;-82
2022/09/21 00:10:39;;;;;;;2.88;0.80;;;12.20;88.30;;;;;;5053912;28;20041;-81
2022/09/21 00:13:07;;;;;;;3.65;0.43;;;12.20;88.60;;;;;;5054067;28;20035;-81
2022/09/21 00:15:33;;;;;;;4.18;0.55;;;12.20;88.80;;;;;;5052907;28;20467;-81
2022/09/21 00:17:59;;;;;;;5.05;0.70;;;12.20;88.90;;;;;;5036028;28;20049;-82
2022/09/21 00:20:26;;;;;;;13.57;0.80;;;12.10;89.10;;;;;;5052714;28;20504;-81
2022/09/21 00:22:52;;;;;;;2.50;0.60;;;12.10;89.00;;;;;;5053807;28;20024;-82
2022/09/21 00:25:19;;;;;;;2.97;0.60;;;12.10;89.00;;;;;;5035295;28;20380;-82
2022/09/21 00:27:47;;;;;;;2.95;0.88;;;12.10;89.10;;;;;;5035896;28;20065;-82
2022/09/21 00:30:14;;;;;;;4.43;0.70;;;12.10;89.20;;;;;;5052096;28;20095;-82
2022/09/21 00:32:40;;;;;;;3.97;0.50;;;12.10;89.20;;;;;;5052704;28;20036;-81
2022/09/21 00:35:09;;;;;;;3.78;0.68;;;12.00;89.20;;;;;;5052593;28;20021;-82
2022/09/21 00:37:35;;;;;;;1.85;0.55;;;12.00;89.20;;;;;;5053742;28;20547;-81
2022/09/21 00:40:02;;;;;;;3.83;0.65;;;12.00;89.30;;;;;;5053524;28;20090;-82
2022/09/21 00:42:33;;;;;;;4.57;1.02;;;12.00;89.40;;;;;;5035324;28;20426;-82
2022/09/21 00:45:00;;;;;;;2.97;0.43;;;12.00;89.70;;;;;;5052360;28;20045;-81
2022/09/21 00:47:35;;;;;;;5.82;0.80;;;11.90;90.20;;;;;;5052198;28;20025;-82
2022/09/21 00:50:08;;;;;;;4.10;0.63;;;11.90;90.00;;;;;;5052474;28;20109;-82
2022/09/21 00:52:39;;;;;;;2.13;0.50;;;11.90;90.10;;;;;;5053543;28;20025;-82
2022/09/21 00:55:15;;;;;;;3.93;0.60;;;11.90;90.20;;;;;;5052424;28;20029;-82
2022/09/21 00:57:42;;;;;;;4.10;0.50;;;11.80;90.30;;;;;;5051825;28;20021;-82
2022/09/21 01:00:09;;;;;;;5.60;0.60;;;11.80;90.40;;;;;;5035757;28;20112;-82
2022/09/21 01:02:38;;;;;;;3.10;0.70;;;11.70;90.40;;;;;;5052284;28;20023;-82
2022/09/21 01:05:06;;;;;;;9.00;0.60;;;11.80;90.60;;;;;;5035428;28;20021;-81
2022/09/21 01:07:35;;;;;;;4.13;0.80;;;11.70;90.60;;;;;;5053354;28;20063;-82
2022/09/21 01:10:08;;;;;;;2.00;0.60;;;11.70;91.00;;;;;;5051640;28;20033;-82
2022/09/21 01:12:42;;;;;;;2.97;0.52;;;11.70;90.80;;;;;;5052854;28;20112;-82
2022/09/21 01:15:20;;;;;;;1.87;0.47;;;11.70;91.10;;;;;;5053190;28;20021;-81
2022/09/21 01:18:12;;;;;;;3.03;0.50;;;11.60;90.90;;;;;;5051739;28;20397;-82
2022/09/21 01:21:07;;;;;;;5.10;0.73;;;11.60;91.00;;;;;;5051624;28;20029;-82
2022/09/21 01:24:00;;;;;;;2.90;0.50;;;11.60;91.00;;;;;;5044313;28;20120;-83
2022/09/21 01:27:06;;;;;;;2.40;0.67;;;11.50;91.00;;;;;;5053065;28;20024;-82
2022/09/21 01:30:01;;;;;;;4.88;0.60;;;11.50;91.10;;;;;;5052336;28;20107;-83
2022/09/21 01:32:37;;;;;;;3.80;0.70;;;11.50;91.10;;;;;;5053415;28;20017;-82
2022/09/21 01:35:16;;;;;;;3.13;0.50;;;11.50;91.10;;;;;;5051911;28;20018;-83
2022/09/21 01:37:47;;;;;;;2.17;0.60;;;11.50;91.10;;;;;;5054177;28;20091;-83
2022/09/21 01:40:49;;;;;;;3.47;0.90;;;11.50;91.20;;;;;;5055674;28;20086;-82
2022/09/21 01:43:25;;;;;;;10.20;1.23;;;11.40;91.20;;;;;;5014529;28;20118;-81
2022/09/21 01:45:54;;;;;;;3.07;1.00;;;11.40;91.20;;;;;;5055452;28;20075;-81
2022/09/21 01:48:21;;;;;;;3.00;0.60;;;11.30;91.30;;;;;;5056028;28;20032;-81
2022/09/21 01:50:55;;;;;;;4.00;0.70;;;11.40;91.40;;;;;;5039473;28;20032;-81
2022/09/21 01:53:40;;;;;;;2.80;0.50;;;11.30;91.40;;;;;;5056835;28;20025;-82
2022/09/21 01:56:09;;;;;;;8.73;0.90;;;11.30;91.50;;;;;;5057101;28;20036;-82
2022/09/21 01:58:55;;;;;;;6.90;0.60;;;11.30;91.50;;;;;;5055889;28;20056;-82
2022/09/21 02:01:26;;;;;;;3.78;0.80;;;11.20;91.60;;;;;;5045894;28;20041;-82
2022/09/21 02:04:00;;;;;;;4.50;0.80;;;11.20;91.60;;;;;;5055469;28;20426;-83
2022/09/21 02:06:27;;;;;;;6.55;0.88;;;11.20;91.70;;;;;;5055379;28;20125;-82
2022/09/21 02:08:54;;;;;;;2.65;0.50;;;11.20;91.80;;;;;;5055278;28;20036;-82
2022/09/21 02:11:20;;;;;;;5.03;0.77;;;11.10;91.90;;;;;;5054953;28;20036;-82
2022/09/21 02:13:49;;;;;;;4.47;0.90;;;11.10;92.00;;;;;;5038713;28;20025;-82
2022/09/21 02:16:35;;;;;;;3.80;0.80;;;11.10;92.20;;;;;;5056308;28;20021;-83
2022/09/21 02:19:01;;;;;;;3.07;0.70;;;11.10;92.30;;;;;;5054637;28;20049;-83
2022/09/21 02:21:32;;;;;;;5.77;0.70;;;11.10;92.40;;;;;;5055220;28;20021;-82
2022/09/21 02:24:20;;;;;;;3.60;0.70;;;11.00;92.40;;;;;;5055065;28;20029;-82
2022/09/21 02:26:53;;;;;;;3.10;0.60;;;11.00;92.50;;;;;;5055248;28;20028;-82
2022/09/21 02:29:39;;;;;;;4.73;0.67;;;11.00;92.50;;;;;;5054528;28;20094;-83
2022/09/21 02:32:23;;;;;;;2.90;0.60;;;11.00;92.60;;;;;;5055029;28;20029;-81
2022/09/21 02:34:59;;;;;;;6.57;0.60;;;10.90;92.60;;;;;;5055105;28;20028;-82
2022/09/21 02:37:35;;;;;;;4.43;0.60;;;10.90;92.60;;;;;;5054692;28;20028;-82
2022/09/21 02:40:16;;;;;;;3.00;0.67;;;10.80;92.60;;;;;;5056379;28;20063;-82
2022/09/21 02:42:45;;;;;;;3.37;0.80;;;10.80;92.70;;;;;;5055754;28;20064;-82
2022/09/21 02:45:19;;;;;;;3.17;0.50;;;10.70;92.70;;;;;;5054899;28;20039;-82
2022/09/21 02:47:56;;;;;;;3.45;0.60;;;10.70;92.80;;;;;;5055003;28;20032;-81
2022/09/21 02:50:44;;;;;;;1.87;0.60;;;10.70;92.80;;;;;;5053591;28;20047;-81
2022/09/21 02:53:11;;;;;;;4.13;0.83;;;10.60;92.90;;;;;;5055081;28;20048;-81
2022/09/21 02:55:38;;;;;;;6.90;0.80;;;10.50;92.90;;;;;;5054597;28;20036;-80
2022/09/21 02:58:09;;;;;;;2.03;0.60;;;10.50;93.00;;;;;;5038067;28;20029;-81
2022/09/21 03:00:35;;;;;;;6.23;1.33;;;10.40;93.00;;;;;;5054377;28;20381;-81
2022/09/21 03:03:17;;;;;;;2.33;0.70;;;10.50;93.10;;;;;;5054216;28;20384;-81
2022/09/21 03:05:45;;;;;;;3.97;0.70;;;10.40;93.20;;;;;;5054572;28;20021;-82
2022/09/21 03:08:11;;;;;;;4.60;0.80;;;10.30;93.20;;;;;;5048623;28;20026;-83
2022/09/21 03:10:39;;;;;;;2.50;0.57;;;10.30;93.30;;;;;;5051341;28;20029;-82
2022/09/21 03:13:07;;;;;;;3.03;0.80;;;10.30;93.40;;;;;;5036393;28;20031;-82
2022/09/21 03:15:36;;;;;;;2.93;0.80;;;10.20;93.40;;;;;;5052579;28;20041;-83
2022/09/21 03:18:04;;;;;;;3.67;0.70;;;10.20;93.50;;;;;;5053526;28;20080;-83
2022/09/21 03:20:34;;;;;;;6.17;0.73;;;10.20;93.60;;;;;;5053293;28;20049;-81
2022/09/21 03:23:00;;;;;;;3.00;0.70;;;10.10;93.60;;;;;;5053630;28;20469;-81
2022/09/21 03:25:26;;;;;;;2.27;0.70;;;10.10;93.70;;;;;;5053935;28;20040;-82
2022/09/21 03:27:55;;;;;;;1.93;0.60;;;10.10;93.80;;;;;;5055237;28;20546;-82
2022/09/21 03:30:21;;;;;;;3.43;0.70;;;10.10;93.80;;;;;;5053565;28;20481;-82
2022/09/21 03:32:51;;;;;;;3.27;0.60;;;10.10;93.90;;;;;;5052604;28;20445;-82
2022/09/21 03:35:21;;;;;;;6.10;0.80;;;10.00;93.90;;;;;;5049141;28;20026;-82
2022/09/21 03:37:48;;;;;;;3.93;0.80;;;10.00;93.90;;;;;;5016613;28;20080;-81
2022/09/21 03:40:14;;;;;;;4.63;0.70;;;10.00;94.00;;;;;;5032936;28;20540;-81
2022/09/21 03:42:40;;;;;;;8.10;0.80;;;9.90;94.00;;;;;;5016803;28;20116;-81
2022/09/21 03:45:06;;;;;;;2.93;0.70;;;9.90;94.10;;;;;;5035072;28;20035;-81
2022/09/21 03:47:32;;;;;;;3.10;1.10;;;9.90;94.10;;;;;;5032841;28;20021;-82
2022/09/21 03:49:58;;;;;;;3.20;0.90;;;9.90;94.20;;;;;;5033409;28;20448;-82
2022/09/21 03:52:24;;;;;;;3.40;0.73;;;9.80;94.20;;;;;;5016841;28;20021;-82
2022/09/21 03:54:49;;;;;;;3.00;0.70;;;9.70;94.30;;;;;;5017089;28;20040;-83
2022/09/21 03:57:15;;;;;;;3.07;0.80;;;9.70;94.40;;;;;;5000511;28;20036;-82
2022/09/21 03:59:41;;;;;;;1.97;0.60;;;9.70;94.40;;;;;;5034715;28;20053;-82
2022/09/21 04:02:07;;;;;;;3.13;0.83;;;9.70;94.50;;;;;;5032999;28;20037;-82
2022/09/21 04:04:32;;;;;;;1.80;0.60;;;9.70;94.50;;;;;;5033121;28;20056;-82
2022/09/21 04:06:58;;;;;;;1.40;0.50;;;9.60;94.60;;;;;;5033363;28;20113;-82
2022/09/21 04:09:24;;;;;;;2.33;0.63;;;9.60;94.70;;;;;;5000200;28;20555;-82
2022/09/21 04:11:52;;;;;;;2.33;0.70;;;9.60;94.80;;;;;;5000255;28;20120;-81
2022/09/21 04:14:17;;;;;;;4.43;0.80;;;9.50;94.90;;;;;;5016602;28;20032;-82
2022/09/21 04:16:43;;;;;;;3.40;0.70;;;9.50;95.00;;;;;;5016870;28;20030;-83
2022/09/21 04:19:09;;;;;;;4.00;0.60;;;9.50;95.10;;;;;;5016355;28;20423;-82
2022/09/21 04:21:35;;;;;;;3.23;0.70;;;9.50;95.20;;;;;;5033204;28;20037;-82
2022/09/21 04:24:00;;;;;;;5.80;0.77;;;9.50;95.30;;;;;;4999754;28;20030;-82
2022/09/21 04:26:32;;;;;;;2.90;0.60;;;9.40;95.30;;;;;;5016296;28;20037;-82
2022/09/21 04:28:59;;;;;;;4.33;0.80;;;9.50;95.40;;;;;;5034003;28;20029;-82
2022/09/21 04:31:26;;;;;;;2.83;0.50;;;9.40;95.40;;;;;;5034483;28;20041;-82
2022/09/21 04:33:54;;;;;;;8.23;1.43;;;9.50;95.50;;;;;;5044771;28;20090;-82
2022/09/21 04:36:21;;;;;;;4.87;0.67;;;9.40;95.60;;;;;;5054502;28;20091;-82
2022/09/21 04:38:47;;;;;;;3.30;0.60;;;9.40;95.70;;;;;;5058084;28;20028;-81
2022/09/21 04:41:14;;;;;;;3.33;0.70;;;9.30;95.70;;;;;;5035114;28;20047;-82
2022/09/21 04:43:47;;;;;;;4.13;0.90;;;9.30;95.90;;;;;;5035177;28;20025;-82
2022/09/21 04:46:16;;;;;;;4.33;0.67;;;9.30;96.00;;;;;;5052176;28;20096;-82
2022/09/21 04:48:42;;;;;;;2.80;0.77;;;9.30;96.10;;;;;;5051334;28;20473;-82
2022/09/21 04:51:09;;;;;;;4.87;0.60;;;9.30;96.20;;;;;;5052882;28;20068;-82
2022/09/21 04:53:37;;;;;;;4.67;0.60;;;9.30;96.40;;;;;;5052292;28;20021;-82
2022/09/21 04:56:04;;;;;;;4.47;0.50;;;9.30;96.50;;;;;;5052905;28;20111;-82
2022/09/21 04:58:30;;;;;;;7.03;0.83;;;9.30;96.60;;;;;;5051783;28;20025;-81
2022/09/21 05:00:56;;;;;;;7.00;1.63;;;9.30;96.70;;;;;;5052078;28;20116;-82
2022/09/21 05:03:23;;;;;;;4.13;0.50;;;9.30;96.80;;;;;;5052079;28;20116;-82
2022/09/21 05:05:55;;;;;;;2.70;0.60;;;9.30;96.90;;;;;;5051811;28;20052;-82
2022/09/21 05:10:01;;;;;;;4.20;0.70;;;9.20;97.00;;;;;;5053760;28;20032;-81
2022/09/21 05:11:14;;;;;;;4.10;0.80;;;9.20;97.10;;;;;;5051457;28;20037;-81
2022/09/21 05:13:40;;;;;;;3.10;0.77;;;9.20;97.10;;;;;;5051380;28;20127;-81
2022/09/21 05:16:06;;;;;;;4.17;1.27;;;9.20;97.20;;;;;;5053181;28;20036;-81
2022/09/21 05:18:32;;;;;;;5.87;0.90;;;9.20;97.20;;;;;;5051704;28;20516;-80
2022/09/21 05:20:59;;;;;;;3.47;0.80;;;9.10;97.30;;;;;;5052139;28;20033;-81
2022/09/21 05:23:29;;;;;;;4.50;0.90;;;9.10;97.30;;;;;;5053224;28;20028;-81
2022/09/21 05:25:56;;;;;;;4.97;0.90;;;9.10;97.30;;;;;;5036771;28;20431;-81
2022/09/21 05:28:22;;;;;;;3.40;0.90;;;9.10;97.40;;;;;;5052185;28;20052;-82
2022/09/21 05:31:01;;;;;;;6.23;1.00;;;9.00;97.40;;;;;;5052449;28;20040;-82
2022/09/21 05:33:29;;;;;;;2.67;0.97;;;9.00;97.50;;;;;;5052540;28;20464;-83
2022/09/21 05:36:09;;;;;;;3.03;0.70;;;9.00;97.60;;;;;;5051801;28;20049;-83
2022/09/21 05:38:35;;;;;;;2.30;0.70;;;9.00;97.60;;;;;;5051739;28;20115;-83
2022/09/21 05:41:01;;;;;;;1.53;0.60;;;9.00;97.60;;;;;;5035568;28;20075;-82
2022/09/21 05:43:27;;;;;;;4.57;0.97;;;8.90;97.60;;;;;;5035831;28;20056;-80
2022/09/21 05:46:09;;;;;;;2.40;0.63;;;8.90;97.70;;;;;;5034748;28;20029;-82
2022/09/21 05:48:41;;;;;;;2.03;0.80;;;8.90;97.80;;;;;;5051838;28;20469;-82
2022/09/21 05:51:35;;;;;;;6.10;0.70;;;8.90;97.80;;;;;;5051892;28;20029;-82
2022/09/21 05:54:10;;;;;;;5.10;0.67;;;9.00;97.80;;;;;;5050043;28;20048;-82
2022/09/21 05:56:52;;;;;;;4.40;0.70;;;8.90;97.80;;;;;;5049459;28;20621;-82
2022/09/21 05:59:45;;;;;;;2.03;0.77;;;8.90;97.80;;;;;;5051459;28;20075;-82
2022/09/21 06:02:29;;;;;;;1.47;0.50;;;8.90;97.80;;;;;;5051335;28;20078;-82
2022/09/21 06:04:58;;;;;;;1.83;0.60;;;8.90;97.80;;;;;;5051533;28;20071;-83
2022/09/21 06:07:24;;;;;;;2.93;0.70;;;8.90;97.80;;;;;;5051016;28;20024;-82
2022/09/21 06:09:49;;;;;;;1.87;0.60;;;8.90;97.80;;;;;;5053113;28;20041;-83
2022/09/21 06:12:15;;;;;;;2.33;0.50;;;8.90;97.90;;;;;;5051837;28;20076;-81
2022/09/21 06:14:41;;;;;;;9.20;1.00;;;8.90;98.00;;;;;;5034662;28;20025;-81
2022/09/21 06:17:06;;;;;;;4.10;0.70;;;9.00;98.10;;;;;;5052184;28;20029;-82
2022/09/21 06:19:32;;;;;;;4.37;0.70;;;8.90;98.20;;;;;;5051056;28;20045;-81
2022/09/21 06:21:58;;;;;;;5.50;0.70;;;8.90;98.20;;;;;;5036264;28;20041;-81
2022/09/21 06:24:23;;;;;;;6.07;0.70;;;9.00;98.40;;;;;;5037882;28;20591;-82
2022/09/21 06:26:49;;;;;;;3.93;0.90;;;9.10;98.40;;;;;;5054956;28;20435;-81
2022/09/21 06:29:16;;;;;;;9.53;3.00;;;9.10;98.50;;;;;;5054526;28;20108;-81
2022/09/21 06:31:41;;;;;;;6.50;2.47;;;9.00;98.60;;;;;;5054830;28;20117;-81
2022/09/21 06:34:07;;;;;;;9.13;2.73;;;9.20;98.70;;;;;;5055947;28;20115;-81
2022/09/21 06:36:33;;;;;;;8.20;3.40;;;9.20;98.70;;;;;;5055250;28;20465;-82
2022/09/21 06:38:58;;;;;;;6.33;1.93;;;9.20;98.80;;;;;;5055233;28;20551;-82
2022/09/21 06:41:24;;;;;;;5.13;1.70;;;9.30;98.90;;;;;;5053772;28;20017;-81
2022/09/21 06:43:54;;;;;;;7.77;1.80;;;9.30;99.10;;;;;;5037083;28;20029;-82
2022/09/21 06:46:19;;;;;;;7.80;2.03;;;9.40;99.20;;;;;;5054297;28;20385;-82
2022/09/21 06:48:45;;;;;;;5.03;1.50;;;9.40;99.30;;;;;;5037798;28;20029;-82
2022/09/21 06:51:10;;;;;;;7.67;2.03;;;9.50;99.40;;;;;;5055614;28;20029;-82
2022/09/21 06:53:36;;;;;;;7.50;2.47;;;9.50;99.50;;;;;;5055826;28;20021;-82
2022/09/21 06:56:03;;;;;;;9.30;3.07;;;9.60;99.60;;;;;;5054481;28;20021;-82
2022/09/21 06:58:30;;;;;;;6.73;2.50;;;9.60;99.70;;;;;;5054109;28;20380;-82
2022/09/21 07:00:56;;;;;;;8.83;2.53;;;9.70;99.80;;;;;;5037486;28;20076;-82
2022/09/21 07:03:21;;;;;;;7.27;2.83;;;9.70;99.90;;;;;;5054458;28;20025;-82
2022/09/21 07:05:48;;;;;;;7.83;3.13;;;9.80;99.90;;;;;;5054114;28;20047;-82
2022/09/21 07:08:14;;;;;;;7.27;3.27;;;9.90;99.90;;;;;;5053945;28;20051;-82
2022/09/21 07:10:39;;;;;;;9.30;2.70;;;9.90;99.90;;;;;;5053757;28;20127;-81
2022/09/21 07:13:08;;;;;;;11.60;3.03;;;10.00;99.90;;;;;;5054000;28;20476;-82
2022/09/21 07:15:34;;;;;;;9.43;2.90;;;10.00;99.90;;;;;;5054401;28;20021;-82
2022/09/21 07:17:59;;;;;;;11.87;4.20;;;10.10;99.90;;;;;;5053569;28;20059;-82
2022/09/21 07:20:25;;;;;;;18.47;4.33;;;10.20;99.90;;;;;;5054260;28;20025;-83
2022/09/21 07:22:50;;;;;;;10.83;4.67;;;10.20;99.90;;;;;;5037413;28;20036;-82
2022/09/21 07:25:16;;;;;;;10.17;3.93;;;10.30;99.90;;;;;;5054107;28;20374;-82
2022/09/21 07:27:42;;;;;;;12.63;5.00;;;10.30;99.90;;;;;;5054060;28;20033;-82
2022/09/21 07:30:08;;;;;;;16.50;4.40;;;10.40;99.90;;;;;;5053819;28;20041;-82
2022/09/21 07:32:34;;;;;;;10.83;4.00;;;10.50;99.90;;;;;;5053588;28;20021;-82
2022/09/21 07:35:00;;;;;;;9.67;3.73;;;10.50;99.90;;;;;;5053317;28;20472;-83
2022/09/21 07:37:27;;;;;;;9.93;3.40;;;10.50;99.90;;;;;;5036138;28;20040;-82
2022/09/21 07:39:52;;;;;;;10.37;3.00;;;10.60;99.90;;;;;;5054547;28;20017;-83
2022/09/21 07:42:20;;;;;;;8.20;2.43;;;10.70;99.90;;;;;;5053748;28;20039;-83
2022/09/21 07:44:46;;;;;;;7.80;2.30;;;10.70;99.90;;;;;;5053835;28;20029;-82
2022/09/21 07:47:12;;;;;;;9.63;2.45;;;10.80;99.90;;;;;;5053515;28;20052;-82
2022/09/21 07:49:38;;;;;;;7.90;2.77;;;10.90;99.90;;;;;;5051917;28;20032;-82
2022/09/21 07:52:04;;;;;;;7.33;2.70;;;10.90;99.90;;;;;;5053648;28;20580;-82
2022/09/21 07:54:31;;;;;;;11.27;4.37;;;11.00;99.90;;;;;;5054196;28;20028;-82
2022/09/21 07:59:40;;;;;;;8.60;3.65;;;11.10;99.90;;;;;;5039445;28;20052;-82
2022/09/21 08:02:06;;;;;;;7.78;3.78;;;11.20;99.90;;;;;;5036320;28;20025;-82
2022/09/21 08:04:32;;;;;;;8.27;3.35;;;11.30;99.90;;;;;;5054334;28;20056;-82
2022/09/21 08:06:58;;;;;;;10.38;4.03;;;11.30;99.90;;;;;;5052912;28;20035;-82
2022/09/21 08:09:23;;;;;;;10.80;3.60;;;11.40;99.90;;;;;;5053121;28;20067;-82
2022/09/21 08:11:50;;;;;;;9.43;3.15;;;11.50;99.90;;;;;;5052498;28;20040;-82
2022/09/21 08:14:19;;;;;;;9.57;4.50;;;11.50;99.90;;;;;;5036151;28;20116;-82
2022/09/21 08:16:46;;;;;;;7.85;3.72;;;11.60;99.90;;;;;;5035636;28;20029;-82
2022/09/21 08:19:13;;;;;;;7.35;3.33;;;11.70;99.90;;;;;;5051480;28;20492;-81
2022/09/21 08:21:39;;;;;;;8.00;2.88;;;11.70;99.90;;;;;;5052464;28;20037;-82
2022/09/21 08:24:08;;;;;;;5.90;2.40;;;11.80;99.90;;;;;;5053976;28;20043;-82
2022/09/21 08:26:34;;;;;;;6.57;1.98;;;11.90;99.90;;;;;;5052830;28;20107;-82
2022/09/21 08:29:00;;;;;;;8.13;2.03;;;12.00;99.90;;;;;;5035337;28;20036;-82
2022/09/21 08:31:26;;;;;;;7.63;2.15;;;12.00;99.90;;;;;;5052377;28;20033;-82
2022/09/21 08:33:53;;;;;;;8.32;2.38;;;12.10;99.90;;;;;;5052781;28;20025;-82
2022/09/21 08:36:19;;;;;;;5.82;1.60;;;12.20;99.90;;;;;;5049274;28;20107;-82
2022/09/21 08:38:45;;;;;;;6.20;1.48;;;12.20;99.90;;;;;;5049796;28;20499;-82
2022/09/21 08:41:29;;;;;;;7.95;1.85;;;12.30;99.80;;;;;;5051989;28;20025;-82
2022/09/21 08:44:00;;;;;;;;;;;12.40;99.60;;;;;;5050030;28;20477;-82
2022/09/21 08:46:29;;;;;;;6.18;2.17;;;12.40;99.30;;;;;;5051549;28;20378;-82
2022/09/21 08:49:03;;;;;;;9.30;2.03;;;12.50;99.20;;;;;;5053068;28;20035;-82
2022/09/21 08:51:35;;;;;;;6.05;2.45;;;12.60;99.20;;;;;;5053129;28;20112;-82
2022/09/21 08:54:11;;;;;;;9.13;2.00;;;12.60;99.10;;;;;;5051529;28;20027;-81
2022/09/21 08:56:37;;;;;;;8.18;1.52;;;12.70;99.00;;;;;;5052219;28;20025;-82
2022/09/21 08:59:07;;;;;;;9.30;2.60;;;12.80;99.00;;;;;;5051373;28;20791;-82
2022/09/21 09:01:36;;;;;;;6.20;2.55;;;12.90;98.90;;;;;;5036104;28;20025;-81
2022/09/21 09:04:48;;;;;;;7.78;1.83;;;12.90;98.80;;;;;;5052514;28;20056;-81
2022/09/21 09:07:53;;;;;;;8.90;2.35;;;13.10;98.70;;;;;;5052295;28;20021;-80
2022/09/21 09:10:38;;;;;;;5.03;1.50;;;13.20;98.50;;;;;;5053257;28;20128;-81
2022/09/21 09:13:27;;;;;;;6.03;1.42;;;13.20;98.30;;;;;;5053598;28;20036;-81
2022/09/21 09:16:04;;;;;;;4.90;1.45;;;13.40;98.20;;;;;;5053191;28;20040;-81
2022/09/21 09:18:33;;;;;;;5.82;1.35;;;13.50;97.90;;;;;;5051809;28;20412;-81
2022/09/21 09:21:15;;;;;;;6.32;1.05;;;13.60;97.50;;;;;;5052775;28;20025;-82
2022/09/21 09:24:11;;;;;;;7.28;1.00;;;13.70;97.10;;;;;;5052870;28;20093;-81
2022/09/21 09:26:50;;;;;;;4.68;0.95;;;13.80;96.80;;;;;;5051482;28;20037;-81
2022/09/21 09:29:32;;;;;;;9.60;1.67;;;13.80;96.40;;;;;;5073426;22;20052;-80
2022/09/21 09:32:00;;;;;;;3.58;0.70;;;13.90;96.10;;;;;;5087067;28;20029;-78
2022/09/21 09:34:42;;;;;;;7.07;0.90;;;13.90;95.90;;;;;;5088376;28;20449;-78
2022/09/21 09:37:14;;;;;;;3.17;0.80;;;14.00;95.70;;;;;;5071170;28;20074;-78
2022/09/21 09:39:41;;;;;;;4.68;1.02;;;14.10;95.40;;;;;;5071756;28;20051;-78
2022/09/21 09:42:33;;;;;;;3.88;0.70;;;14.20;95.10;;;;;;5088010;28;20107;-78
2022/09/21 09:45:20;;;;;;;4.68;1.17;;;14.20;94.70;;;;;;5066691;28;20042;-77
2022/09/21 09:48:23;;;;;;;6.82;1.05;;;14.30;94.40;;;;;;5075714;28;20039;-80
2022/09/21 09:50:48;;;;;;;7.00;0.85;;;14.40;94.30;;;;;;5083188;28;20055;-78
2022/09/21 09:53:20;;;;;;;3.95;0.50;;;14.60;94.10;;;;;;5091414;28;20549;-78
2022/09/21 09:55:49;;;;;;;2.90;0.50;;;14.90;93.90;;;;;;5092535;28;20025;-79
2022/09/21 09:58:23;;;;;;;5.18;0.70;;;15.10;93.50;;;;;;5092907;28;20051;-79
2022/09/21 10:00:55;;;;;;;5.05;0.63;;;15.50;93.00;;;;;;5096850;28;20035;-79
2022/09/21 10:03:25;;;;;;;3.72;0.40;;;16.00;92.60;;;;;;5095676;28;20475;-79
2022/09/21 10:05:51;;;;;;;5.50;0.60;;;16.40;92.10;;;;;;5096807;28;20020;-79
2022/09/21 10:08:35;;;;;;;2.83;0.50;;;16.50;91.40;;;;;;5095034;28;20490;-79
2022/09/21 10:11:02;;;;;;;4.40;0.57;;;16.60;90.40;;;;;;5089402;28;20043;-79
2022/09/21 10:13:30;;;;;;;4.18;0.63;;;16.70;90.10;;;;;;5074621;28;20476;-80
2022/09/21 10:16:11;;;;;;;1.65;0.60;;;16.60;89.20;;;;;;5074764;28;20016;-77
2022/09/21 10:18:55;;;;;;;3.97;0.50;;;17.20;90.00;;;;;;5075215;28;20028;-80
2022/09/21 10:21:45;;;;;;;5.65;0.43;;;18.20;90.50;;;;;;5074894;28;20024;-79
2022/09/21 10:24:21;;;;;;;5.80;0.88;;;19.20;90.30;;;;;;5075969;28;20046;-80
2022/09/21 10:26:49;;;;;;;3.53;0.55;;;20.40;89.20;;;;;;5075075;28;20453;-80
2022/09/21 10:29:21;;;;;;;2.60;0.40;;;21.50;85.60;;;;;;5075640;28;20056;-79
2022/09/21 10:32:00;;;;;;;3.17;0.52;;;22.50;81.40;;;;;;5080755;28;20464;-80
2022/09/21 10:34:29;;;;;;;2.47;0.52;;;23.50;77.50;;;;;;5076753;28;20020;-80
2022/09/21 10:36:57;;;;;;;1.45;0.32;;;24.40;74.00;;;;;;5075600;28;20024;-80
2022/09/21 10:39:29;;;;;;;2.30;0.30;;;25.20;69.00;;;;;;5074262;28;20016;-81
2022/09/21 10:42:01;;;;;;;4.45;0.40;;;25.90;64.10;;;;;;5079416;28;20376;-81
2022/09/21 10:44:42;;;;;;;3.75;0.45;;;26.70;61.40;;;;;;5085410;28;20028;-81
2022/09/21 10:47:34;;;;;;;2.50;0.40;;;27.40;59.30;;;;;;5073557;28;20020;-82
2022/09/21 10:50:04;;;;;;;2.93;0.60;;;28.20;56.00;;;;;;5078807;28;20052;-81
2022/09/21 10:52:37;;;;;;;2.58;0.50;;;28.80;55.70;;;;;;5078249;28;20368;-81
2022/09/21 10:55:04;;;;;;;3.22;0.50;;;29.20;52.90;;;;;;5081455;28;20028;-81
2022/09/21 10:57:32;;;;;;;5.28;0.60;;;29.60;51.80;;;;;;5079890;28;20024;-81
2022/09/21 11:00:10;;;;;;;2.80;0.50;;;29.90;51.10;;;;;;5085920;28;20111;-81
2022/09/21 11:02:37;;;;;;;2.30;0.43;;;30.30;49.80;;;;;;5087682;28;20503;-81
2022/09/21 11:05:31;;;;;;;2.15;0.50;;;30.70;48.80;;;;;;5078053;28;20032;-81
2022/09/21 11:08:05;;;;;;;2.78;0.57;;;31.00;47.30;;;;;;5075398;28;20023;-81
2022/09/21 11:10:58;;;;;;;2.45;0.50;;;31.30;47.20;;;;;;5088757;28;20123;-81
2022/09/21 11:13:24;;;;;;;1.65;0.40;;;31.80;45.30;;;;;;5074611;28;20488;-82
2022/09/21 11:16:39;;;;;;;4.90;0.65;;;32.10;45.60;;;;;;5076869;28;20025;-81
2022/09/21 11:19:32;;;;;;;2.88;0.50;;;32.40;42.40;;;;;;5086829;28;20028;-81
2022/09/21 11:22:31;;;;;;;2.53;0.50;;;32.40;42.80;;;;;;5074800;28;20465;-81
2022/09/21 11:25:30;;;;;;;2.28;0.55;;;32.60;41.40;;;;;;5085047;28;20479;-81
2022/09/21 11:28:03;;;;;;;3.10;0.50;;;32.90;40.90;;;;;;5074405;28;20016;-81
2022/09/21 11:30:43;;;;;;;2.42;0.32;;;33.30;40.30;;;;;;5087185;28;20048;-81
2022/09/21 11:33:36;;;;;;;3.00;0.50;;;33.30;40.00;;;;;;5087076;28;20040;-82
2022/09/21 11:36:33;;;;;;;1.17;0.20;;;33.30;38.60;;;;;;5075359;28;20338;-81
2022/09/21 11:39:17;;;;;;;2.38;0.60;;;33.10;38.10;;;;;;5073897;28;20423;-81
2022/09/21 11:41:54;;;;;;;3.25;0.40;;;32.50;37.80;;;;;;5076925;28;20012;-81
2022/09/21 11:44:41;;;;;;;2.55;0.40;;;32.00;38.40;;;;;;5077477;28;20056;-82
2022/09/21 11:47:35;;;;;;;1.73;0.30;;;31.90;37.80;;;;;;5083441;28;20024;-81
2022/09/21 11:50:07;;;;;;;1.75;0.28;;;32.10;38.00;;;;;;5089521;28;20115;-82
2022/09/21 11:52:38;;;;;;;3.28;0.57;;;32.50;38.80;;;;;;5078407;28;20012;-81
2022/09/21 11:55:16;;;;;;;2.25;0.60;;;33.00;38.00;;;;;;5074019;28;20198;-82
2022/09/21 11:58:14;;;;;;;2.25;0.40;;;33.40;36.80;;;;;;5080528;28;20046;-82
2022/09/21 12:00:57;;;;;;;1.38;0.40;;;33.40;36.70;;;;;;5074398;28;20020;-81
2022/09/21 12:04:02;;;;;;;2.28;0.40;;;32.90;36.50;;;;;;5085539;28;20156;-81
2022/09/21 12:06:48;;;;;;;1.52;0.32;;;32.60;36.70;;;;;;5073740;28;20044;-81
2022/09/21 12:09:20;;;;;;;4.28;0.40;;;32.30;36.80;;;;;;5077619;28;20047;-81
2022/09/21 12:11:56;;;;;;;2.10;0.30;;;32.00;36.90;;;;;;5079936;28;20098;-81
2022/09/21 12:14:49;;;;;;;1.30;0.20;;;31.90;36.40;;;;;;5079682;28;20029;-81
2022/09/21 12:17:41;;;;;;;2.47;0.30;;;31.40;35.90;;;;;;5073861;28;20027;-81
2022/09/21 12:20:25;;;;;;;2.05;0.35;;;30.80;36.10;;;;;;5087467;28;20030;-80
2022/09/21 12:22:55;;;;;;;;;;;30.00;36.30;;;;;;5084088;28;20111;-81
2022/09/21 12:25:50;;;;;;;3.95;0.40;;;29.30;36.90;;;;;;5076054;28;20371;-81
2022/09/21 12:28:36;;;;;;;1.23;0.20;;;28.70;37.40;;;;;;5072739;28;20021;-82
2022/09/21 12:31:14;;;;;;;3.40;0.50;;;28.10;37.90;;;;;;5080347;28;20387;-81
2022/09/21 12:34:21;;;;;;;2.50;0.40;;;27.70;38.10;;;;;;5085494;28;20032;-82
2022/09/21 12:37:17;;;;;;;2.45;0.38;;;27.50;38.30;;;;;;5073404;28;20105;-81
2022/09/21 12:40:02;;;;;;;1.92;0.30;;;27.60;38.30;;;;;;5078747;28;20012;-82
2022/09/21 12:42:45;;;;;;;1.95;0.25;;;27.30;38.90;;;;;;5082517;28;20048;-81
2022/09/21 12:45:35;;;;;;;1.63;0.20;;;26.80;38.50;;;;;;5082252;28;20158;-81
2022/09/21 12:48:26;;;;;;;2.83;0.45;;;26.30;38.80;;;;;;5078217;28;20028;-81
2022/09/21 12:50:56;;;;;;;4.05;0.30;;;25.80;39.30;;;;;;5076092;28;20048;-81
2022/09/21 12:53:26;;;;;;;2.30;0.25;;;25.40;40.10;;;;;;5081206;28;20020;-81
2022/09/21 12:56:08;;;;;;;2.72;0.38;;;25.00;41.20;;;;;;5074929;28;20025;-81
2022/09/21 12:59:15;;;;;;;2.58;0.28;;;24.80;41.60;;;;;;5080191;28;20055;-81
2022/09/21 13:01:48;;;;;;;0.77;0.20;;;24.50;41.80;;;;;;5066669;28;20116;-81
2022/09/21 13:04:37;;;;;;;1.17;0.17;;;24.20;42.00;;;;;;5072085;28;20016;-81
2022/09/21 13:07:18;;;;;;;1.55;0.35;;;24.00;42.20;;;;;;5072493;28;20538;-81
2022/09/21 13:09:45;;;;;;;2.90;0.35;;;23.80;42.30;;;;;;5071257;28;20437;-81
2022/09/21 13:12:24;;;;;;;1.75;0.35;;;23.70;42.50;;;;;;5070021;28;20024;-81
2022/09/21 13:14:58;;;;;;;3.75;0.40;;;23.50;42.80;;;;;;5070969;28;20440;-81
2022/09/21 13:17:29;;;;;;;1.63;0.20;;;23.30;43.40;;;;;;5072186;28;20040;-80
2022/09/21 13:20:19;;;;;;;3.10;0.30;;;23.20;44.10;;;;;;5075965;28;20483;-80
2022/09/21 13:22:47;;;;;;;0.60;0.20;;;23.10;44.50;;;;;;5060113;28;20048;-80
2022/09/21 13:25:23;;;;;;;2.58;0.30;;;22.90;44.40;;;;;;5071778;28;20428;-80